Accueil
METAR-TAF:

METAR-TAF

Aéroports :

Aéroport international du Kansai

Kansai, Japon

latitude: 34-25N, longitude: 135-15E, altitude: 5 m

Observation

Le bulletin a été fait il y a 27 minutes, à 21:30 UTC
Vent 8 kt de nord
Température 5°C
Humidité 52%
Pression 1026 hPa
Visibilité 10 km ou plus
Quelques nuages à une hauteur de 2500 ft
Nuages épars à une hauteur de 6000 ft

METAR: RJBB 272130Z 35008KT 9999 FEW025 SCT060 05/M04 Q1026 NOSIG

Heure: 06:57 (21:57 UTC)

Prévision

Le bulletin a été fait il y a 4 heures et 52 minutes, à 17:05 UTC
Prévision valable du 27 à 18 UTC au 29 à 00 UTC
Vent 10 kt de nord
Visibilité 10 km ou plus
Quelques nuages à une hauteur de 2500 ft
Evoluant progressivement
du 28 à 04 UTC au 28 à 06 UTC
Vent 4 kt de sud-ouest

TAF: RJBB 271705Z 2718/2900 36010KT 9999 FEW025 BECMG 2804/2806 22004KT

Observations et prévisions météorologiques de plus de 4000 aéroports (messages METAR et TAF).

Les stations disponibles sont représentées par des disques jaunes et rouges sur la carte.

Passer la souris dessus pour voir le nom de la station.

Cliquer dessus pour voir les observations et prévisions météorologiques.

Pour changer de carte: cliquez sur les boutons verts avec une croix noire pour zoomer, sur le bouton vert avec un tiret pour effectuer un zoom arrière, ou sur les flèches vertes pour les cartes adjacentes.


METAR-TAF: